Aviation WX

[Source: ADDS]
METAR
KFKL 200156Z AUTO 11003KT 10SM CLR 21/14 A3007 RMK AO2 SLP177 T02060144 =
TAF
KFKL 192320Z 2000/2024 15005KT P6SM SKC FM201500 17008KT P6SM BKN120 =

Clarion Airport T-Shirts

small

Information Page

 

faa drones

Drone Information

The FAA before you fly Smart Phone App.  https://www.faa.gov/uas/where_to_fly/b4ufly/

The FAA Drone/UAV page.   https://www.faa.gov/uas/

How do I get a Remote Pilot Operators Certificate?  https://www.faa.gov/uas/getting_started/fly_for_work_business/becoming_a_pilot/

Drone Law Enforcement Checklist.  https://www.faa.gov/uas/resources/law_enforcement/media/FAA-UAS-DRONE-LE-ReferenceCard.pdf

UAS Waiver for Flights neart Airports.  https://www.faa.gov/uas/request_waiver/

Sportys UAS Ground School Course.  http://www.sportys.com/pilotshop/uas-ground-school-course.html?___SID=U